sensor_id;sensor_type;location;lat;lon;timestamp;temperature;humidity
52709;DHT22;38606;52.986;6.980;2022-12-18T00:01:44;-2.30;99.90
52709;DHT22;38606;52.986;6.980;2022-12-18T00:04:24;-2.40;99.90
52709;DHT22;38606;52.986;6.980;2022-12-18T00:11:42;-2.40;99.90
52709;DHT22;38606;52.986;6.980;2022-12-18T00:14:10;-2.60;99.90
52709;DHT22;38606;52.986;6.980;2022-12-18T00:19:03;-2.40;99.90
52709;DHT22;38606;52.986;6.980;2022-12-18T00:21:30;-2.40;99.90
52709;DHT22;38606;52.986;6.980;2022-12-18T00:23:57;-2.50;99.90
52709;DHT22;38606;52.986;6.980;2022-12-18T00:26:25;-2.70;99.90
52709;DHT22;38606;52.986;6.980;2022-12-18T00:28:53;-2.50;99.90
52709;DHT22;38606;52.986;6.980;2022-12-18T00:31:21;-2.50;99.90
52709;DHT22;38606;52.986;6.980;2022-12-18T00:36:20;-2.70;99.90
52709;DHT22;38606;52.986;6.980;2022-12-18T00:38:47;-2.60;99.90
52709;DHT22;38606;52.986;6.980;2022-12-18T00:41:15;-2.40;99.90
52709;DHT22;38606;52.986;6.980;2022-12-18T00:44:04;-2.70;99.90
52709;DHT22;38606;52.986;6.980;2022-12-18T00:46:30;-2.70;99.90
52709;DHT22;38606;52.986;6.980;2022-12-18T00:48:57;-2.50;99.90
52709;DHT22;38606;52.986;6.980;2022-12-18T00:56:14;-2.50;99.90
52709;DHT22;38606;52.986;6.980;2022-12-18T01:15:50;-2.90;99.90
52709;DHT22;38606;52.986;6.980;2022-12-18T01:25:36;-2.90;99.90
52709;DHT22;38606;52.986;6.980;2022-12-18T01:40:12;-3.10;99.90
52709;DHT22;38606;52.986;6.980;2022-12-18T01:47:44;-3.20;99.90
52709;DHT22;38606;52.986;6.980;2022-12-18T01:52:59;-3.50;99.90
52709;DHT22;38606;52.986;6.980;2022-12-18T01:55:30;-3.40;99.90
52709;DHT22;38606;52.986;6.980;2022-12-18T01:57:58;-3.40;99.90
52709;DHT22;38606;52.986;6.980;2022-12-18T02:00:25;-3.60;99.90
52709;DHT22;38606;52.986;6.980;2022-12-18T02:05:22;-3.60;99.90
52709;DHT22;38606;52.986;6.980;2022-12-18T02:08:23;-3.30;99.90
52709;DHT22;38606;52.986;6.980;2022-12-18T02:11:09;-3.40;99.90
52709;DHT22;38606;52.986;6.980;2022-12-18T02:16:26;-3.70;99.90
52709;DHT22;38606;52.986;6.980;2022-12-18T02:18:58;-3.90;99.90
52709;DHT22;38606;52.986;6.980;2022-12-18T02:24:38;-3.80;99.90
52709;DHT22;38606;52.986;6.980;2022-12-18T02:27:07;-3.90;99.90
52709;DHT22;38606;52.986;6.980;2022-12-18T02:29:44;-3.80;99.90
52709;DHT22;38606;52.986;6.980;2022-12-18T02:32:15;-3.90;99.90
52709;DHT22;38606;52.986;6.980;2022-12-18T02:34:43;-3.90;99.90
52709;DHT22;38606;52.986;6.980;2022-12-18T02:37:12;-3.90;99.90
52709;DHT22;38606;52.986;6.980;2022-12-18T02:39:41;-4.10;99.90
52709;DHT22;38606;52.986;6.980;2022-12-18T02:44:48;-4.00;99.90
52709;DHT22;38606;52.986;6.980;2022-12-18T02:47:16;-4.20;99.90
52709;DHT22;38606;52.986;6.980;2022-12-18T02:55:32;-4.30;99.90
52709;DHT22;38606;52.986;6.980;2022-12-18T02:58:34;-4.20;99.90
52709;DHT22;38606;52.986;6.980;2022-12-18T03:01:38;-4.40;99.90
52709;DHT22;38606;52.986;6.980;2022-12-18T03:06:50;-4.50;99.90
52709;DHT22;38606;52.986;6.980;2022-12-18T03:09:27;-4.60;99.90
52709;DHT22;38606;52.986;6.980;2022-12-18T03:11:56;-4.60;99.90
52709;DHT22;38606;52.986;6.980;2022-12-18T03:14:43;-4.50;99.90
52709;DHT22;38606;52.986;6.980;2022-12-18T03:17:13;-4.60;99.90
52709;DHT22;38606;52.986;6.980;2022-12-18T03:19:41;-4.50;99.90
52709;DHT22;38606;52.986;6.980;2022-12-18T03:24:36;-4.70;99.90
52709;DHT22;38606;52.986;6.980;2022-12-18T03:27:11;-4.60;99.90
52709;DHT22;38606;52.986;6.980;2022-12-18T03:32:16;-4.80;99.90
52709;DHT22;38606;52.986;6.980;2022-12-18T03:34:44;-5.00;99.90
52709;DHT22;38606;52.986;6.980;2022-12-18T03:39:38;-4.80;99.90
52709;DHT22;38606;52.986;6.980;2022-12-18T03:42:15;-4.70;99.90
52709;DHT22;38606;52.986;6.980;2022-12-18T03:57:19;-4.80;99.90
52709;DHT22;38606;52.986;6.980;2022-12-18T03:59:48;-4.90;99.90
52709;DHT22;38606;52.986;6.980;2022-12-18T04:02:16;-4.10;99.90
52709;DHT22;38606;52.986;6.980;2022-12-18T04:04:43;-3.60;99.90
52709;DHT22;38606;52.986;6.980;2022-12-18T04:07:10;-4.90;99.90
52709;DHT22;38606;52.986;6.980;2022-12-18T04:09:38;-5.20;99.90
52709;DHT22;38606;52.986;6.980;2022-12-18T04:46:15;-5.10;99.90
52709;DHT22;38606;52.986;6.980;2022-12-18T04:51:07;-5.10;99.90
52709;DHT22;38606;52.986;6.980;2022-12-18T04:56:07;-5.20;99.90
52709;DHT22;38606;52.986;6.980;2022-12-18T04:58:34;-5.20;99.90
52709;DHT22;38606;52.986;6.980;2022-12-18T05:05:52;-5.20;99.90
52709;DHT22;38606;52.986;6.980;2022-12-18T05:13:10;-5.30;99.90
52709;DHT22;38606;52.986;6.980;2022-12-18T05:18:02;-5.20;99.90
52709;DHT22;38606;52.986;6.980;2022-12-18T05:25:21;-5.50;99.90
52709;DHT22;38606;52.986;6.980;2022-12-18T05:30:14;-5.30;99.90
52709;DHT22;38606;52.986;6.980;2022-12-18T05:35:08;-5.50;99.90
52709;DHT22;38606;52.986;6.980;2022-12-18T05:37:34;-5.40;99.90
52709;DHT22;38606;52.986;6.980;2022-12-18T05:49:44;-5.30;99.90
52709;DHT22;38606;52.986;6.980;2022-12-18T06:11:38;-5.50;99.90
52709;DHT22;38606;52.986;6.980;2022-12-18T06:14:06;-5.50;99.90
52709;DHT22;38606;52.986;6.980;2022-12-18T06:18:59;-5.50;99.90
52709;DHT22;38606;52.986;6.980;2022-12-18T06:21:26;-5.50;99.90
52709;DHT22;38606;52.986;6.980;2022-12-18T06:33:37;-5.40;99.90
52709;DHT22;38606;52.986;6.980;2022-12-18T06:36:05;-5.50;99.90
52709;DHT22;38606;52.986;6.980;2022-12-18T06:53:11;-5.60;99.90
52709;DHT22;38606;52.986;6.980;2022-12-18T07:15:07;-5.70;99.90
52709;DHT22;38606;52.986;6.980;2022-12-18T07:24:51;-5.60;99.90
52709;DHT22;38606;52.986;6.980;2022-12-18T07:34:35;-5.50;99.90
52709;DHT22;38606;52.986;6.980;2022-12-18T07:39:27;-5.50;99.90
52709;DHT22;38606;52.986;6.980;2022-12-18T07:47:04;-5.50;99.90
52709;DHT22;38606;52.986;6.980;2022-12-18T08:09:00;-5.50;99.90
52709;DHT22;38606;52.986;6.980;2022-12-18T08:11:27;-5.30;99.90
52709;DHT22;38606;52.986;6.980;2022-12-18T08:16:20;-5.60;99.90
52709;DHT22;38606;52.986;6.980;2022-12-18T08:18:46;-5.30;99.90
52709;DHT22;38606;52.986;6.980;2022-12-18T08:21:14;-5.60;99.90
52709;DHT22;38606;52.986;6.980;2022-12-18T08:26:07;-5.30;99.90
52709;DHT22;38606;52.986;6.980;2022-12-18T08:28:34;-5.30;99.90
52709;DHT22;38606;52.986;6.980;2022-12-18T08:35:52;-5.00;99.90
52709;DHT22;38606;52.986;6.980;2022-12-18T08:50:58;-4.90;99.90
52709;DHT22;38606;52.986;6.980;2022-12-18T09:12:56;-4.50;99.90
52709;DHT22;38606;52.986;6.980;2022-12-18T09:15:22;-4.50;99.90
52709;DHT22;38606;52.986;6.980;2022-12-18T09:17:48;-4.40;99.90
52709;DHT22;38606;52.986;6.980;2022-12-18T09:20:15;-4.60;99.90
52709;DHT22;38606;52.986;6.980;2022-12-18T09:25:07;-4.30;99.90
52709;DHT22;38606;52.986;6.980;2022-12-18T09:34:52;-4.00;99.90
52709;DHT22;38606;52.986;6.980;2022-12-18T09:42:21;-3.80;99.90
52709;DHT22;38606;52.986;6.980;2022-12-18T09:44:53;-3.70;99.90
52709;DHT22;38606;52.986;6.980;2022-12-18T09:47:30;-3.70;99.90
52709;DHT22;38606;52.986;6.980;2022-12-18T09:50:26;-3.50;99.90
52709;DHT22;38606;52.986;6.980;2022-12-18T09:52:55;-3.50;99.90
52709;DHT22;38606;52.986;6.980;2022-12-18T09:55:32;-3.50;99.90
52709;DHT22;38606;52.986;6.980;2022-12-18T09:58:19;-3.40;99.90
52709;DHT22;38606;52.986;6.980;2022-12-18T10:03:14;-3.10;99.90
52709;DHT22;38606;52.986;6.980;2022-12-18T10:06:04;-3.10;99.90
52709;DHT22;38606;52.986;6.980;2022-12-18T10:08:54;-3.00;99.90
52709;DHT22;38606;52.986;6.980;2022-12-18T10:14:07;-2.80;99.90
52709;DHT22;38606;52.986;6.980;2022-12-18T10:16:57;-2.90;99.90
52709;DHT22;38606;52.986;6.980;2022-12-18T10:19:34;-2.80;99.90
52709;DHT22;38606;52.986;6.980;2022-12-18T10:25:27;-2.80;99.90
52709;DHT22;38606;52.986;6.980;2022-12-18T10:28:00;-2.50;99.90
52709;DHT22;38606;52.986;6.980;2022-12-18T10:33:02;-2.70;99.90
52709;DHT22;38606;52.986;6.980;2022-12-18T10:38:01;-2.50;99.90
52709;DHT22;38606;52.986;6.980;2022-12-18T10:43:11;-2.50;99.90
52709;DHT22;38606;52.986;6.980;2022-12-18T10:45:37;-2.50;99.90
52709;DHT22;38606;52.986;6.980;2022-12-18T10:48:03;-3.60;99.90
52709;DHT22;38606;52.986;6.980;2022-12-18T10:50:32;-2.40;99.90
52709;DHT22;38606;52.986;6.980;2022-12-18T10:53:00;-2.40;99.90
52709;DHT22;38606;52.986;6.980;2022-12-18T10:55:35;-2.40;99.90
52709;DHT22;38606;52.986;6.980;2022-12-18T11:03:47;-2.30;99.90
52709;DHT22;38606;52.986;6.980;2022-12-18T11:06:24;-2.20;99.90
52709;DHT22;38606;52.986;6.980;2022-12-18T11:11:25;-2.20;99.90
52709;DHT22;38606;52.986;6.980;2022-12-18T11:16:31;-2.00;99.90
52709;DHT22;38606;52.986;6.980;2022-12-18T11:19:32;-2.20;99.90
52709;DHT22;38606;52.986;6.980;2022-12-18T11:21:59;-2.00;99.90
52709;DHT22;38606;52.986;6.980;2022-12-18T11:24:31;-1.80;99.90
52709;DHT22;38606;52.986;6.980;2022-12-18T11:27:00;-1.70;99.90
52709;DHT22;38606;52.986;6.980;2022-12-18T11:37:31;-1.50;99.90
52709;DHT22;38606;52.986;6.980;2022-12-18T11:40:14;-1.50;99.90
52709;DHT22;38606;52.986;6.980;2022-12-18T11:43:11;-1.50;99.90
52709;DHT22;38606;52.986;6.980;2022-12-18T11:45:52;-1.50;99.90
52709;DHT22;38606;52.986;6.980;2022-12-18T11:48:25;-1.60;99.90
52709;DHT22;38606;52.986;6.980;2022-12-18T11:50:57;-1.30;99.90
52709;DHT22;38606;52.986;6.980;2022-12-18T11:53:25;-1.20;99.90
52709;DHT22;38606;52.986;6.980;2022-12-18T12:04:08;-1.20;99.90
52709;DHT22;38606;52.986;6.980;2022-12-18T12:25:46;-0.90;99.90
52709;DHT22;38606;52.986;6.980;2022-12-18T12:33:41;-0.90;99.90
52709;DHT22;38606;52.986;6.980;2022-12-18T12:38:52;-0.90;99.90
52709;DHT22;38606;52.986;6.980;2022-12-18T12:41:25;-0.90;99.90
52709;DHT22;38606;52.986;6.980;2022-12-18T12:44:27;-0.90;99.90
52709;DHT22;38606;52.986;6.980;2022-12-18T12:46:57;-0.80;99.90
52709;DHT22;38606;52.986;6.980;2022-12-18T12:49:27;-0.70;99.90
52709;DHT22;38606;52.986;6.980;2022-12-18T12:52:00;-0.70;99.90
52709;DHT22;38606;52.986;6.980;2022-12-18T12:54:30;-0.70;99.90
52709;DHT22;38606;52.986;6.980;2022-12-18T12:57:07;-0.70;99.90
52709;DHT22;38606;52.986;6.980;2022-12-18T13:05:28;-0.70;99.90
52709;DHT22;38606;52.986;6.980;2022-12-18T13:10:39;-0.70;99.90
52709;DHT22;38606;52.986;6.980;2022-12-18T13:15:40;-0.70;99.90
52709;DHT22;38606;52.986;6.980;2022-12-18T13:20:43;-0.70;99.90
52709;DHT22;38606;52.986;6.980;2022-12-18T13:23:29;-0.70;99.90
52709;DHT22;38606;52.986;6.980;2022-12-18T13:36:47;-0.50;99.90
52709;DHT22;38606;52.986;6.980;2022-12-18T13:41:43;-0.70;99.90
52709;DHT22;38606;52.986;6.980;2022-12-18T13:46:46;-0.70;99.90
52709;DHT22;38606;52.986;6.980;2022-12-18T13:51:43;-0.80;99.90
52709;DHT22;38606;52.986;6.980;2022-12-18T13:56:46;-0.80;99.90
52709;DHT22;38606;52.986;6.980;2022-12-18T13:59:24;-0.90;99.90
52709;DHT22;38606;52.986;6.980;2022-12-18T14:01:59;-0.80;99.90
52709;DHT22;38606;52.986;6.980;2022-12-18T14:07:35;-0.90;99.90
52709;DHT22;38606;52.986;6.980;2022-12-18T14:09:47;-0.80;99.90
52709;DHT22;38606;52.986;6.980;2022-12-18T14:12:33;-0.70;99.90
52709;DHT22;38606;52.986;6.980;2022-12-18T14:15:32;-0.90;99.90
52709;DHT22;38606;52.986;6.980;2022-12-18T14:18:00;-1.00;99.90
52709;DHT22;38606;52.986;6.980;2022-12-18T14:20:29;-0.80;99.90
52709;DHT22;38606;52.986;6.980;2022-12-18T14:22:57;-1.00;99.90
52709;DHT22;38606;52.986;6.980;2022-12-18T14:25:25;-0.80;99.90
52709;DHT22;38606;52.986;6.980;2022-12-18T14:30:40;-1.00;99.90
52709;DHT22;38606;52.986;6.980;2022-12-18T14:33:20;-1.00;99.90
52709;DHT22;38606;52.986;6.980;2022-12-18T14:35:56;-0.90;99.90
52709;DHT22;38606;52.986;6.980;2022-12-18T14:38:28;-1.10;99.90
52709;DHT22;38606;52.986;6.980;2022-12-18T14:40:59;-1.10;99.90
52709;DHT22;38606;52.986;6.980;2022-12-18T14:43:27;-0.50;99.90
52709;DHT22;38606;52.986;6.980;2022-12-18T14:45:54;-1.40;99.90
52709;DHT22;38606;52.986;6.980;2022-12-18T14:48:30;-1.10;99.90
52709;DHT22;38606;52.986;6.980;2022-12-18T14:51:16;-1.10;99.90
52709;DHT22;38606;52.986;6.980;2022-12-18T14:53:45;-1.00;99.90
52709;DHT22;38606;52.986;6.980;2022-12-18T14:56:23;-1.20;99.90
52709;DHT22;38606;52.986;6.980;2022-12-18T14:58:58;-1.10;99.90
52709;DHT22;38606;52.986;6.980;2022-12-18T15:01:36;-1.30;99.90
52709;DHT22;38606;52.986;6.980;2022-12-18T15:04:03;-1.20;99.90
52709;DHT22;38606;52.986;6.980;2022-12-18T15:06:35;-1.20;99.90
52709;DHT22;38606;52.986;6.980;2022-12-18T15:09:23;-1.20;99.90
52709;DHT22;38606;52.986;6.980;2022-12-18T15:11:56;-1.20;99.90
52709;DHT22;38606;52.986;6.980;2022-12-18T15:14:41;-1.20;99.90
52709;DHT22;38606;52.986;6.980;2022-12-18T15:17:17;-1.20;99.90
52709;DHT22;38606;52.986;6.980;2022-12-18T15:19:45;-1.20;99.90
52709;DHT22;38606;52.986;6.980;2022-12-18T15:22:27;-1.20;99.90
52709;DHT22;38606;52.986;6.980;2022-12-18T15:24:54;-1.20;99.90
52709;DHT22;38606;52.986;6.980;2022-12-18T15:27:40;-1.30;99.90
52709;DHT22;38606;52.986;6.980;2022-12-18T15:30:20;-1.10;99.90
52709;DHT22;38606;52.986;6.980;2022-12-18T15:32:46;-1.20;99.90
52709;DHT22;38606;52.986;6.980;2022-12-18T15:35:24;-1.30;99.90
52709;DHT22;38606;52.986;6.980;2022-12-18T15:37:51;-1.10;99.90
52709;DHT22;38606;52.986;6.980;2022-12-18T15:40:19;-1.20;99.90
52709;DHT22;38606;52.986;6.980;2022-12-18T15:42:46;-1.30;99.90
52709;DHT22;38606;52.986;6.980;2022-12-18T15:45:30;-1.30;99.90
52709;DHT22;38606;52.986;6.980;2022-12-18T15:52:50;-1.40;99.90
52709;DHT22;38606;52.986;6.980;2022-12-18T15:55:21;-1.30;99.90
52709;DHT22;38606;52.986;6.980;2022-12-18T15:58:07;-1.10;99.90
52709;DHT22;38606;52.986;6.980;2022-12-18T16:00:35;-1.30;99.90
52709;DHT22;38606;52.986;6.980;2022-12-18T16:03:02;-1.20;99.90
52709;DHT22;38606;52.986;6.980;2022-12-18T16:05:28;-1.30;99.90
52709;DHT22;38606;52.986;6.980;2022-12-18T16:07:54;-1.30;99.90
52709;DHT22;38606;52.986;6.980;2022-12-18T16:10:20;-1.20;99.90
52709;DHT22;38606;52.986;6.980;2022-12-18T16:12:46;-1.20;99.90
52709;DHT22;38606;52.986;6.980;2022-12-18T16:15:14;-1.30;99.90
52709;DHT22;38606;52.986;6.980;2022-12-18T16:17:45;-1.30;99.90
52709;DHT22;38606;52.986;6.980;2022-12-18T16:20:20;-1.20;99.90
52709;DHT22;38606;52.986;6.980;2022-12-18T16:22:47;-1.30;99.90
52709;DHT22;38606;52.986;6.980;2022-12-18T16:25:22;-1.20;99.90
52709;DHT22;38606;52.986;6.980;2022-12-18T16:27:49;-1.10;99.90
52709;DHT22;38606;52.986;6.980;2022-12-18T16:30:29;-1.10;99.90
52709;DHT22;38606;52.986;6.980;2022-12-18T16:32:59;-1.20;99.90
52709;DHT22;38606;52.986;6.980;2022-12-18T16:35:26;-1.20;99.90
52709;DHT22;38606;52.986;6.980;2022-12-18T16:37:52;-1.10;99.90
52709;DHT22;38606;52.986;6.980;2022-12-18T16:40:18;-1.10;99.90
52709;DHT22;38606;52.986;6.980;2022-12-18T16:42:45;-1.20;99.90
52709;DHT22;38606;52.986;6.980;2022-12-18T16:45:14;-1.10;99.90
52709;DHT22;38606;52.986;6.980;2022-12-18T16:47:40;-1.00;99.90
52709;DHT22;38606;52.986;6.980;2022-12-18T16:50:07;-1.10;99.90
52709;DHT22;38606;52.986;6.980;2022-12-18T16:52:33;-1.20;99.90
52709;DHT22;38606;52.986;6.980;2022-12-18T16:54:59;-1.10;99.90
52709;DHT22;38606;52.986;6.980;2022-12-18T16:57:25;-0.90;99.90
52709;DHT22;38606;52.986;6.980;2022-12-18T16:59:51;-0.80;99.90
52709;DHT22;38606;52.986;6.980;2022-12-18T17:02:22;-1.00;99.90
52709;DHT22;38606;52.986;6.980;2022-12-18T17:04:48;-1.10;99.90
52709;DHT22;38606;52.986;6.980;2022-12-18T17:07:15;-1.00;99.90
52709;DHT22;38606;52.986;6.980;2022-12-18T17:09:41;-1.00;99.90
52709;DHT22;38606;52.986;6.980;2022-12-18T17:12:10;-1.00;99.90
52709;DHT22;38606;52.986;6.980;2022-12-18T17:14:36;-0.90;99.90
52709;DHT22;38606;52.986;6.980;2022-12-18T17:17:02;-1.10;99.90
52709;DHT22;38606;52.986;6.980;2022-12-18T17:19:28;-0.90;99.90
52709;DHT22;38606;52.986;6.980;2022-12-18T17:21:54;-0.90;99.90
52709;DHT22;38606;52.986;6.980;2022-12-18T17:24:20;-1.00;99.90
52709;DHT22;38606;52.986;6.980;2022-12-18T17:26:46;-1.00;99.90
52709;DHT22;38606;52.986;6.980;2022-12-18T17:29:15;-0.90;99.90
52709;DHT22;38606;52.986;6.980;2022-12-18T17:34:09;-0.90;99.90
52709;DHT22;38606;52.986;6.980;2022-12-18T17:36:35;-0.90;99.90
52709;DHT22;38606;52.986;6.980;2022-12-18T17:39:01;-0.90;99.90
52709;DHT22;38606;52.986;6.980;2022-12-18T17:41:28;-1.00;99.90
52709;DHT22;38606;52.986;6.980;2022-12-18T17:44:04;-1.00;99.90
52709;DHT22;38606;52.986;6.980;2022-12-18T17:46:32;-0.90;99.90
52709;DHT22;38606;52.986;6.980;2022-12-18T17:48:59;-0.70;99.90
52709;DHT22;38606;52.986;6.980;2022-12-18T17:51:26;-0.90;99.90
52709;DHT22;38606;52.986;6.980;2022-12-18T17:53:52;-0.90;99.90
52709;DHT22;38606;52.986;6.980;2022-12-18T17:56:19;-0.80;99.90
52709;DHT22;38606;52.986;6.980;2022-12-18T17:58:45;-0.80;99.90
52709;DHT22;38606;52.986;6.980;2022-12-18T18:01:14;-0.90;99.90
52709;DHT22;38606;52.986;6.980;2022-12-18T18:03:40;-0.80;99.90
52709;DHT22;38606;52.986;6.980;2022-12-18T18:06:07;-0.80;99.90
52709;DHT22;38606;52.986;6.980;2022-12-18T18:08:33;-0.70;99.90
52709;DHT22;38606;52.986;6.980;2022-12-18T18:11:04;-0.80;99.90
52709;DHT22;38606;52.986;6.980;2022-12-18T18:13:49;-0.70;99.90
52709;DHT22;38606;52.986;6.980;2022-12-18T18:16:35;-0.70;99.90
52709;DHT22;38606;52.986;6.980;2022-12-18T18:19:03;-0.80;99.90
52709;DHT22;38606;52.986;6.980;2022-12-18T18:21:29;-0.80;99.90
52709;DHT22;38606;52.986;6.980;2022-12-18T18:24:01;-0.70;99.90
52709;DHT22;38606;52.986;6.980;2022-12-18T18:26:30;-0.70;99.90
52709;DHT22;38606;52.986;6.980;2022-12-18T18:28:57;-0.70;99.90
52709;DHT22;38606;52.986;6.980;2022-12-18T18:31:23;-0.80;99.90
52709;DHT22;38606;52.986;6.980;2022-12-18T18:33:49;-0.60;99.90
52709;DHT22;38606;52.986;6.980;2022-12-18T18:36:15;-0.60;99.90
52709;DHT22;38606;52.986;6.980;2022-12-18T18:38:40;-1.90;99.90
52709;DHT22;38606;52.986;6.980;2022-12-18T18:41:06;-0.60;99.90
52709;DHT22;38606;52.986;6.980;2022-12-18T18:43:32;-0.60;99.90
52709;DHT22;38606;52.986;6.980;2022-12-18T18:45:59;-0.60;99.90
52709;DHT22;38606;52.986;6.980;2022-12-18T18:48:27;-0.50;99.90
52709;DHT22;38606;52.986;6.980;2022-12-18T18:50:59;-0.60;99.90
52709;DHT22;38606;52.986;6.980;2022-12-18T18:53:26;-0.60;99.90
52709;DHT22;38606;52.986;6.980;2022-12-18T18:55:53;-0.60;99.90
52709;DHT22;38606;52.986;6.980;2022-12-18T18:58:19;-0.70;99.90
52709;DHT22;38606;52.986;6.980;2022-12-18T19:00:52;0.60;99.90
52709;DHT22;38606;52.986;6.980;2022-12-18T19:03:18;-0.60;99.90
52709;DHT22;38606;52.986;6.980;2022-12-18T19:05:50;-0.60;99.90
52709;DHT22;38606;52.986;6.980;2022-12-18T19:08:16;-0.50;99.90
52709;DHT22;38606;52.986;6.980;2022-12-18T19:10:42;-0.50;99.90
52709;DHT22;38606;52.986;6.980;2022-12-18T19:13:11;-0.40;99.90
52709;DHT22;38606;52.986;6.980;2022-12-18T19:15:47;0.70;99.90
52709;DHT22;38606;52.986;6.980;2022-12-18T19:18:13;0.50;99.90
52709;DHT22;38606;52.986;6.980;2022-12-18T19:20:39;-0.60;99.90
52709;DHT22;38606;52.986;6.980;2022-12-18T19:23:05;-0.50;99.90
52709;DHT22;38606;52.986;6.980;2022-12-18T19:25:30;-0.50;99.90
52709;DHT22;38606;52.986;6.980;2022-12-18T19:27:58;-0.40;99.90
52709;DHT22;38606;52.986;6.980;2022-12-18T19:30:24;-0.40;99.90
52709;DHT22;38606;52.986;6.980;2022-12-18T19:32:50;0.90;99.90
52709;DHT22;38606;52.986;6.980;2022-12-18T19:35:15;-0.50;99.90
52709;DHT22;38606;52.986;6.980;2022-12-18T19:37:41;-0.40;99.90
52709;DHT22;38606;52.986;6.980;2022-12-18T19:40:07;-0.40;99.90
52709;DHT22;38606;52.986;6.980;2022-12-18T19:42:33;-0.40;99.90
52709;DHT22;38606;52.986;6.980;2022-12-18T19:44:59;-0.40;99.90
52709;DHT22;38606;52.986;6.980;2022-12-18T19:47:24;-0.30;99.90
52709;DHT22;38606;52.986;6.980;2022-12-18T19:49:50;-0.20;99.90
52709;DHT22;38606;52.986;6.980;2022-12-18T19:52:16;-0.40;99.90
52709;DHT22;38606;52.986;6.980;2022-12-18T19:54:41;0.30;99.90
52709;DHT22;38606;52.986;6.980;2022-12-18T19:57:07;-0.20;99.90
52709;DHT22;38606;52.986;6.980;2022-12-18T19:59:36;0.20;99.90
52709;DHT22;38606;52.986;6.980;2022-12-18T20:02:02;-0.20;99.90
52709;DHT22;38606;52.986;6.980;2022-12-18T20:04:28;-0.20;99.90
52709;DHT22;38606;52.986;6.980;2022-12-18T20:06:53;-0.30;99.90
52709;DHT22;38606;52.986;6.980;2022-12-18T20:09:19;-0.30;99.90
52709;DHT22;38606;52.986;6.980;2022-12-18T20:11:45;0.10;99.90
52709;DHT22;38606;52.986;6.980;2022-12-18T20:14:13;-0.10;99.90
52709;DHT22;38606;52.986;6.980;2022-12-18T20:16:39;-0.20;99.90
52709;DHT22;38606;52.986;6.980;2022-12-18T20:19:06;-0.20;99.90
52709;DHT22;38606;52.986;6.980;2022-12-18T20:21:31;0.10;99.90
52709;DHT22;38606;52.986;6.980;2022-12-18T20:23:57;0.10;99.90
52709;DHT22;38606;52.986;6.980;2022-12-18T20:26:24;-0.20;99.90
52709;DHT22;38606;52.986;6.980;2022-12-18T20:28:51;0.00;99.90
52709;DHT22;38606;52.986;6.980;2022-12-18T20:31:16;0.00;99.90
52709;DHT22;38606;52.986;6.980;2022-12-18T20:33:42;0.00;99.90
52709;DHT22;38606;52.986;6.980;2022-12-18T20:36:14;2.00;99.90
52709;DHT22;38606;52.986;6.980;2022-12-18T20:38:41;-0.10;99.90
52709;DHT22;38606;52.986;6.980;2022-12-18T20:41:08;-0.10;99.90
52709;DHT22;38606;52.986;6.980;2022-12-18T20:43:35;0.00;99.90
52709;DHT22;38606;52.986;6.980;2022-12-18T20:46:02;0.10;99.90
52709;DHT22;38606;52.986;6.980;2022-12-18T20:48:29;0.00;99.90
52709;DHT22;38606;52.986;6.980;2022-12-18T20:51:03;0.10;99.90
52709;DHT22;38606;52.986;6.980;2022-12-18T20:53:31;0.20;99.90
52709;DHT22;38606;52.986;6.980;2022-12-18T20:55:57;0.00;99.90
52709;DHT22;38606;52.986;6.980;2022-12-18T20:58:23;0.10;99.90
52709;DHT22;38606;52.986;6.980;2022-12-18T21:00:49;0.10;99.90
52709;DHT22;38606;52.986;6.980;2022-12-18T21:03:14;0.20;99.90
52709;DHT22;38606;52.986;6.980;2022-12-18T21:05:40;0.20;99.90
52709;DHT22;38606;52.986;6.980;2022-12-18T21:08:07;0.30;99.90
52709;DHT22;38606;52.986;6.980;2022-12-18T21:10:33;0.20;99.90
52709;DHT22;38606;52.986;6.980;2022-12-18T21:12:59;0.20;99.90
52709;DHT22;38606;52.986;6.980;2022-12-18T21:15:25;1.50;99.90
52709;DHT22;38606;52.986;6.980;2022-12-18T21:17:50;0.20;99.90
52709;DHT22;38606;52.986;6.980;2022-12-18T21:20:16;1.40;99.90
52709;DHT22;38606;52.986;6.980;2022-12-18T21:22:42;0.40;99.90
52709;DHT22;38606;52.986;6.980;2022-12-18T21:25:08;0.20;99.90
52709;DHT22;38606;52.986;6.980;2022-12-18T21:27:34;0.20;99.90
52709;DHT22;38606;52.986;6.980;2022-12-18T21:30:00;1.50;99.90
52709;DHT22;38606;52.986;6.980;2022-12-18T21:32:25;0.40;99.90
52709;DHT22;38606;52.986;6.980;2022-12-18T21:34:51;0.30;99.90
52709;DHT22;38606;52.986;6.980;2022-12-18T21:37:17;0.50;99.90
52709;DHT22;38606;52.986;6.980;2022-12-18T21:39:42;1.60;99.90
52709;DHT22;38606;52.986;6.980;2022-12-18T21:42:10;0.50;99.90
52709;DHT22;38606;52.986;6.980;2022-12-18T21:44:55;0.50;99.90
52709;DHT22;38606;52.986;6.980;2022-12-18T21:47:20;0.20;99.90
52709;DHT22;38606;52.986;6.980;2022-12-18T21:49:46;0.90;99.90
52709;DHT22;38606;52.986;6.980;2022-12-18T21:52:12;0.40;99.90
52709;DHT22;38606;52.986;6.980;2022-12-18T21:54:38;1.70;99.90
52709;DHT22;38606;52.986;6.980;2022-12-18T21:57:05;0.80;99.90
52709;DHT22;38606;52.986;6.980;2022-12-18T21:59:32;1.80;99.90
52709;DHT22;38606;52.986;6.980;2022-12-18T22:02:00;1.20;99.90
52709;DHT22;38606;52.986;6.980;2022-12-18T22:04:26;0.40;99.90
52709;DHT22;38606;52.986;6.980;2022-12-18T22:06:55;0.40;99.90
52709;DHT22;38606;52.986;6.980;2022-12-18T22:09:23;1.60;99.90
52709;DHT22;38606;52.986;6.980;2022-12-18T22:11:49;0.50;99.90
52709;DHT22;38606;52.986;6.980;2022-12-18T22:14:15;0.60;99.90
52709;DHT22;38606;52.986;6.980;2022-12-18T22:16:41;0.50;99.90
52709;DHT22;38606;52.986;6.980;2022-12-18T22:19:09;0.50;99.90
52709;DHT22;38606;52.986;6.980;2022-12-18T22:21:38;0.50;99.90
52709;DHT22;38606;52.986;6.980;2022-12-18T22:24:06;0.50;99.90
52709;DHT22;38606;52.986;6.980;2022-12-18T22:26:35;0.50;99.90
52709;DHT22;38606;52.986;6.980;2022-12-18T22:29:01;0.70;99.90
52709;DHT22;38606;52.986;6.980;2022-12-18T22:31:45;0.40;99.90
52709;DHT22;38606;52.986;6.980;2022-12-18T22:34:11;0.40;99.90
52709;DHT22;38606;52.986;6.980;2022-12-18T22:36:43;0.60;99.90
52709;DHT22;38606;52.986;6.980;2022-12-18T22:39:16;0.70;99.90
52709;DHT22;38606;52.986;6.980;2022-12-18T22:41:42;1.20;99.90
52709;DHT22;38606;52.986;6.980;2022-12-18T22:44:08;1.50;99.90
52709;DHT22;38606;52.986;6.980;2022-12-18T22:46:39;0.60;99.90
52709;DHT22;38606;52.986;6.980;2022-12-18T22:49:06;1.30;99.90
52709;DHT22;38606;52.986;6.980;2022-12-18T22:51:35;0.80;99.90
52709;DHT22;38606;52.986;6.980;2022-12-18T22:54:01;0.70;99.90
52709;DHT22;38606;52.986;6.980;2022-12-18T22:56:26;0.60;99.90
52709;DHT22;38606;52.986;6.980;2022-12-18T22:58:52;0.80;99.90
52709;DHT22;38606;52.986;6.980;2022-12-18T23:01:21;0.80;99.90
52709;DHT22;38606;52.986;6.980;2022-12-18T23:03:48;0.90;99.90
52709;DHT22;38606;52.986;6.980;2022-12-18T23:06:14;0.70;99.90
52709;DHT22;38606;52.986;6.980;2022-12-18T23:08:40;0.60;99.90
52709;DHT22;38606;52.986;6.980;2022-12-18T23:11:06;0.70;99.90
52709;DHT22;38606;52.986;6.980;2022-12-18T23:13:32;0.70;99.90
52709;DHT22;38606;52.986;6.980;2022-12-18T23:15:58;0.70;99.90
52709;DHT22;38606;52.986;6.980;2022-12-18T23:18:24;0.80;99.90
52709;DHT22;38606;52.986;6.980;2022-12-18T23:20:50;1.40;99.90
52709;DHT22;38606;52.986;6.980;2022-12-18T23:23:15;0.70;99.90